createdAt,value
2019-06-07T00:02:22.255Z,6.77
2019-06-07T00:04:50.098Z,6.70
2019-06-07T00:07:21.431Z,6.70
2019-06-07T00:09:47.171Z,7.33
2019-06-07T00:12:16.905Z,7.40
2019-06-07T00:14:44.433Z,6.90
2019-06-07T00:17:15.110Z,7.03
2019-06-07T00:19:41.917Z,6.40
2019-06-07T00:22:29.825Z,7.67
2019-06-07T00:24:38.976Z,7.83
2019-06-07T00:27:06.755Z,8.37
2019-06-07T00:29:34.617Z,7.87
2019-06-07T00:32:02.479Z,7.73
2019-06-07T00:34:30.349Z,7.00
2019-06-07T00:36:58.037Z,7.33
2019-06-07T00:39:26.343Z,7.33
2019-06-07T00:41:54.150Z,8.07
2019-06-07T00:44:23.422Z,8.07
2019-06-07T00:46:51.636Z,6.73
2019-06-07T00:49:37.736Z,7.77
2019-06-07T00:51:51.646Z,7.00
2019-06-07T00:54:20.290Z,6.93
2019-06-07T00:56:47.699Z,6.97
2019-06-07T00:59:18.571Z,7.00
2019-06-07T01:01:44.884Z,6.53
2019-06-07T01:04:13.112Z,7.97
2019-06-07T01:06:41.670Z,7.43
2019-06-07T01:09:09.518Z,7.40
2019-06-07T01:11:37.273Z,7.70
2019-06-07T01:14:05.661Z,7.33
2019-06-07T01:16:55.283Z,7.00
2019-06-07T01:19:02.813Z,7.73
2019-06-07T01:21:30.483Z,9.33
2019-06-07T01:24:11.567Z,9.50
2019-06-07T01:26:30.195Z,9.17
2019-06-07T01:28:56.978Z,8.37
2019-06-07T01:31:27.811Z,8.90
2019-06-07T01:33:54.129Z,9.47
2019-06-07T01:36:24.404Z,9.37
2019-06-07T01:38:51.412Z,9.00
2019-06-07T01:41:22.016Z,8.87
2019-06-07T01:43:48.370Z,8.40
2019-06-07T01:46:16.146Z,7.77
2019-06-07T01:48:49.608Z,7.97
2019-06-07T01:51:13.207Z,7.47
2019-06-07T01:53:40.982Z,7.67
2019-06-07T01:56:08.844Z,8.33
2019-06-07T01:58:36.601Z,8.43
2019-06-07T02:01:04.382Z,8.87
2019-06-07T02:03:33.204Z,9.20
2019-06-07T02:06:01.391Z,8.73
2019-06-07T02:08:34.065Z,8.73
2019-06-07T02:10:58.708Z,8.20
2019-06-07T02:13:28.899Z,8.73
2019-06-07T02:15:55.983Z,7.97
2019-06-07T02:18:26.078Z,8.70
2019-06-07T02:20:53.035Z,9.17
2019-06-07T02:23:23.116Z,8.57
2019-06-07T02:25:50.759Z,9.63
2019-06-07T02:28:30.016Z,8.80
2019-06-07T02:30:59.668Z,9.87
2019-06-07T02:33:17.618Z,14.30
2019-06-07T02:35:45.396Z,16.43
2019-06-07T02:38:13.156Z,13.90
2019-06-07T02:40:40.912Z,11.87
2019-06-07T02:43:08.742Z,11.40
2019-06-07T02:45:42.718Z,10.13
2019-06-07T02:48:05.724Z,11.37
2019-06-07T02:50:37.966Z,11.33
2019-06-07T02:53:02.933Z,11.23
2019-06-07T02:55:34.655Z,11.43
2019-06-07T02:58:00.084Z,12.27
2019-06-07T03:01:00.027Z,14.27
2019-06-07T03:03:08.319Z,12.77
2019-06-07T03:05:38.758Z,10.60
2019-06-07T03:08:07.121Z,9.50
2019-06-07T03:10:37.738Z,10.97
2019-06-07T03:13:05.821Z,10.30
2019-06-07T03:15:44.636Z,11.17
2019-06-07T03:18:05.934Z,10.20
2019-06-07T03:20:35.098Z,10.83
2019-06-07T03:23:04.913Z,10.40
2019-06-07T03:25:37.333Z,11.60
2019-06-07T03:28:06.764Z,11.57
2019-06-07T03:30:46.959Z,11.63
2019-06-07T03:33:03.933Z,12.37
2019-06-07T03:35:34.660Z,12.27
2019-06-07T03:38:01.399Z,11.93
2019-06-07T03:40:29.164Z,12.10
2019-06-07T03:42:57.045Z,12.90
2019-06-07T03:45:24.909Z,12.97
2019-06-07T03:47:52.786Z,14.60
2019-06-07T03:50:20.429Z,14.00
2019-06-07T03:52:48.218Z,13.27
2019-06-07T03:55:16.079Z,14.70
2019-06-07T03:58:30.092Z,14.17
2019-06-07T04:00:13.615Z,14.53
2019-06-07T04:02:42.240Z,14.50
2019-06-07T04:05:10.418Z,14.80
2019-06-07T04:07:43.709Z,14.20
2019-06-07T04:10:07.577Z,13.93
2019-06-07T04:12:41.277Z,14.40
2019-06-07T04:15:05.455Z,13.63
2019-06-07T04:17:34.683Z,12.73
2019-06-07T04:20:03.032Z,14.20
2019-06-07T04:22:31.543Z,14.03
2019-06-07T04:25:01.449Z,13.43
2019-06-07T04:27:30.628Z,14.47
2019-06-07T04:30:07.427Z,13.23
2019-06-07T04:32:29.795Z,13.60
2019-06-07T04:34:57.427Z,13.40
2019-06-07T04:37:26.734Z,13.30
2019-06-07T04:39:54.699Z,13.23
2019-06-07T04:42:22.771Z,12.47
2019-06-07T04:44:51.376Z,11.20
2019-06-07T04:47:19.314Z,12.93
2019-06-07T04:49:48.429Z,12.10
2019-06-07T04:52:16.202Z,13.23
2019-06-07T04:54:45.871Z,12.53
2019-06-07T04:57:13.360Z,13.10
2019-06-07T05:00:11.213Z,13.73
2019-06-07T05:02:10.539Z,12.37
2019-06-07T05:04:39.825Z,12.27
2019-06-07T05:07:07.913Z,12.90
2019-06-07T05:09:38.939Z,12.07
2019-06-07T05:12:05.605Z,12.40
2019-06-07T05:14:34.579Z,12.57
2019-06-07T05:17:02.765Z,11.97
2019-06-07T05:19:31.210Z,12.60
2019-06-07T05:22:04.769Z,13.67
2019-06-07T05:24:30.722Z,13.13
2019-06-07T05:26:58.724Z,12.77
2019-06-07T05:29:26.397Z,12.27
2019-06-07T05:31:54.477Z,13.17
2019-06-07T05:34:22.232Z,13.63
2019-06-07T05:37:10.499Z,12.63
2019-06-07T05:39:19.213Z,12.27
2019-06-07T05:41:47.055Z,12.37
2019-06-07T05:44:15.158Z,12.40
2019-06-07T05:46:46.652Z,12.37
2019-06-07T05:49:12.503Z,13.03
2019-06-07T05:51:43.281Z,13.60
2019-06-07T05:54:09.689Z,14.17
2019-06-07T05:56:39.407Z,14.63
2019-06-07T05:59:06.811Z,12.97
2019-06-07T06:01:44.931Z,13.17
2019-06-07T06:04:04.246Z,12.07
2019-06-07T06:06:31.999Z,13.17
2019-06-07T06:09:13.413Z,12.97
2019-06-07T06:11:43.380Z,12.83
2019-06-07T06:14:07.294Z,12.23
2019-06-07T06:16:27.990Z,13.93
2019-06-07T06:18:55.854Z,14.27
2019-06-07T06:21:23.624Z,14.47
2019-06-07T06:23:52.296Z,13.23
2019-06-07T06:26:20.887Z,14.13
2019-06-07T06:28:49.726Z,13.93
2019-06-07T06:31:17.958Z,14.43
2019-06-07T06:33:47.546Z,14.03
2019-06-07T06:36:15.263Z,14.10
2019-06-07T06:38:43.872Z,12.60
2019-06-07T06:41:16.252Z,13.43
2019-06-07T06:43:46.371Z,14.73
2019-06-07T06:46:11.310Z,13.40
2019-06-07T06:48:40.770Z,13.33
2019-06-07T06:51:08.685Z,12.17
2019-06-07T06:53:36.441Z,14.27
2019-06-07T06:56:04.317Z,13.83
2019-06-07T06:59:18.493Z,13.53
2019-06-07T07:01:06.683Z,13.23
2019-06-07T07:03:56.776Z,13.67
2019-06-07T07:06:24.722Z,12.80
2019-06-07T07:08:29.900Z,14.57
2019-06-07T07:10:57.788Z,12.77
2019-06-07T07:13:25.643Z,13.83
2019-06-07T07:15:57.996Z,14.37
2019-06-07T07:18:22.922Z,13.47
2019-06-07T07:20:55.699Z,12.17
2019-06-07T07:23:20.272Z,10.80
2019-06-07T07:25:55.393Z,11.60
2019-06-07T07:28:17.440Z,11.47
2019-06-07T07:30:47.395Z,11.17
2019-06-07T07:33:16.290Z,12.00
2019-06-07T07:36:09.490Z,12.63
2019-06-07T07:38:13.855Z,11.87
2019-06-07T07:41:01.650Z,13.27
2019-06-07T07:43:11.350Z,12.60
2019-06-07T07:45:39.509Z,13.50
2019-06-07T07:48:15.633Z,14.17
2019-06-07T07:50:36.981Z,13.93
2019-06-07T07:53:04.845Z,13.03
2019-06-07T07:55:32.670Z,13.67
2019-06-07T07:58:01.933Z,13.40
2019-06-07T08:00:52.417Z,14.10
2019-06-07T08:03:04.126Z,13.43
2019-06-07T08:05:42.617Z,13.43
2019-06-07T08:08:01.564Z,14.00
2019-06-07T08:10:28.116Z,14.20
2019-06-07T08:13:19.547Z,13.37
2019-06-07T08:15:25.177Z,14.03
2019-06-07T08:17:58.090Z,13.00
2019-06-07T08:20:22.130Z,14.20
2019-06-07T08:22:50.074Z,14.83
2019-06-07T08:25:17.997Z,13.57
2019-06-07T08:27:46.988Z,14.23
2019-06-07T08:30:46.949Z,13.60
2019-06-07T08:32:44.940Z,14.40
2019-06-07T08:35:57.212Z,14.57
2019-06-07T08:38:14.650Z,14.87
2019-06-07T08:40:11.958Z,12.83
2019-06-07T08:42:59.859Z,14.40
2019-06-07T08:45:09.842Z,13.03
2019-06-07T08:47:37.621Z,13.60
2019-06-07T08:50:09.162Z,13.60
2019-06-07T08:52:37.030Z,14.67
2019-06-07T08:55:05.424Z,13.20
2019-06-07T08:57:33.172Z,13.10
2019-06-07T09:00:16.153Z,12.17
2019-06-07T09:02:30.247Z,13.00
2019-06-07T09:05:02.801Z,12.80
2019-06-07T09:07:27.454Z,13.23
2019-06-07T09:10:03.596Z,11.57
2019-06-07T09:12:24.690Z,13.13
2019-06-07T09:15:09.370Z,11.43
2019-06-07T09:17:21.775Z,13.97
2019-06-07T09:19:49.423Z,12.57
2019-06-07T09:22:17.388Z,14.03
2019-06-07T09:24:45.136Z,13.57
2019-06-07T09:27:13.286Z,12.90
2019-06-07T09:29:41.090Z,12.97
2019-06-07T09:32:11.985Z,12.53
2019-06-07T09:34:38.481Z,14.87
2019-06-07T09:37:54.713Z,12.60
2019-06-07T09:39:35.812Z,12.20
2019-06-07T09:42:09.419Z,12.60
2019-06-07T09:44:32.891Z,12.00
2019-06-07T09:47:20.243Z,12.57
2019-06-07T09:49:32.711Z,11.60
2019-06-07T09:52:02.206Z,13.07
2019-06-07T09:55:03.823Z,16.07
2019-06-07T09:57:00.338Z,13.13
2019-06-07T09:59:28.283Z,15.13
2019-06-07T10:01:59.127Z,14.87
2019-06-07T10:04:31.294Z,15.47
2019-06-07T10:06:54.894Z,15.20
2019-06-07T10:11:52.671Z,18.00
2019-06-07T10:14:20.452Z,17.97
2019-06-07T10:16:48.739Z,16.70
2019-06-07T10:19:16.808Z,17.83
2019-06-07T10:21:44.426Z,17.90
2019-06-07T10:24:12.213Z,15.60
2019-06-07T10:26:39.973Z,17.53
2019-06-07T10:29:09.111Z,15.97
2019-06-07T10:31:37.266Z,16.53
2019-06-07T10:34:06.566Z,16.65
2019-06-07T10:36:34.322Z,17.13
2019-06-07T10:39:02.893Z,18.30
2019-06-07T10:41:30.756Z,15.47
2019-06-07T10:43:58.537Z,16.33
2019-06-07T10:46:26.413Z,14.77
2019-06-07T10:48:54.250Z,15.70
2019-06-07T10:51:22.669Z,15.93
2019-06-07T10:53:52.062Z,16.63
2019-06-07T10:56:19.829Z,16.63
2019-06-07T10:58:47.602Z,12.20
2019-06-07T11:01:15.674Z,12.67
2019-06-07T11:03:43.579Z,14.33
2019-06-07T11:06:12.168Z,12.77
2019-06-07T11:08:40.198Z,13.17
2019-06-07T11:11:08.008Z,14.37
2019-06-07T11:13:35.822Z,14.17
2019-06-07T11:16:04.702Z,14.63
2019-06-07T11:18:32.707Z,13.70
2019-06-07T11:21:00.439Z,14.10
2019-06-07T11:23:28.216Z,14.27
2019-06-07T11:25:56.085Z,13.37
2019-06-07T11:28:24.058Z,15.40
2019-06-07T11:30:51.817Z,13.63
2019-06-07T11:33:19.581Z,14.47
2019-06-07T11:35:47.353Z,14.57
2019-06-07T11:38:15.118Z,12.80
2019-06-07T11:40:42.992Z,12.80
2019-06-07T11:43:10.843Z,11.40
2019-06-07T11:45:38.717Z,12.17
2019-06-07T11:48:07.161Z,13.80
2019-06-07T11:50:35.567Z,12.87
2019-06-07T11:53:03.353Z,12.40
2019-06-07T11:55:31.130Z,10.43
2019-06-07T11:57:58.991Z,10.40
2019-06-07T12:00:26.859Z,12.27
2019-06-07T12:02:54.713Z,11.80
2019-06-07T12:05:22.590Z,10.27
2019-06-07T12:07:50.344Z,9.47
2019-06-07T12:10:22.696Z,9.37
2019-06-07T12:12:47.611Z,8.97
2019-06-07T12:15:16.954Z,9.50
2019-06-07T12:17:45.179Z,9.73
2019-06-07T12:20:14.849Z,8.30
2019-06-07T12:22:42.390Z,9.03
2019-06-07T12:25:10.492Z,10.27
2019-06-07T12:27:38.507Z,10.33
2019-06-07T12:30:13.420Z,9.53
2019-06-07T12:32:38.996Z,9.17
2019-06-07T12:35:07.663Z,9.23
2019-06-07T12:37:43.968Z,7.70
2019-06-07T12:40:08.945Z,8.10
2019-06-07T12:42:36.889Z,8.03
2019-06-07T12:45:06.195Z,8.47
2019-06-07T12:47:34.070Z,10.20
2019-06-07T12:50:02.036Z,9.20
2019-06-07T12:52:29.810Z,11.07
2019-06-07T12:54:57.674Z,9.53
2019-06-07T12:57:25.428Z,10.20
2019-06-07T12:59:53.080Z,9.93
2019-06-07T13:02:22.133Z,10.00
2019-06-07T13:04:50.252Z,10.03
2019-06-07T13:07:19.958Z,10.20
2019-06-07T13:09:47.542Z,9.40
2019-06-07T13:12:15.532Z,10.20
2019-06-07T13:14:43.590Z,11.30
2019-06-07T13:17:11.770Z,10.20
2019-06-07T13:19:39.524Z,11.87
2019-06-07T13:22:07.397Z,14.43
2019-06-07T13:24:35.158Z,11.50
2019-06-07T13:27:02.791Z,10.43
2019-06-07T13:29:32.329Z,10.30
2019-06-07T13:31:59.889Z,15.80
2019-06-07T13:34:28.130Z,9.33
2019-06-07T13:36:55.932Z,10.70
2019-06-07T13:39:26.471Z,9.43
2019-06-07T13:41:53.114Z,10.60
2019-06-07T13:44:21.002Z,13.23
2019-06-07T13:46:48.845Z,10.63
2019-06-07T13:49:17.359Z,11.73
2019-06-07T13:51:45.190Z,9.03
2019-06-07T13:54:13.064Z,8.80
2019-06-07T13:57:00.822Z,9.63
2019-06-07T13:59:10.238Z,10.83
2019-06-07T14:01:38.097Z,11.50
2019-06-07T14:04:05.986Z,11.40
2019-06-07T14:06:33.934Z,9.97
2019-06-07T14:09:01.696Z,10.37
2019-06-07T14:11:30.083Z,10.80
2019-06-07T14:13:58.865Z,8.87
2019-06-07T14:16:26.641Z,9.70
2019-06-07T14:18:54.817Z,9.40
2019-06-07T14:21:22.609Z,9.23
2019-06-07T14:23:50.455Z,9.23
2019-06-07T14:26:18.244Z,10.37
2019-06-07T14:28:45.936Z,9.60
2019-06-07T14:31:13.678Z,9.17
2019-06-07T14:33:41.697Z,8.77
2019-06-07T14:36:10.099Z,9.87
2019-06-07T14:38:38.492Z,8.63
2019-06-07T14:41:06.247Z,8.03
2019-06-07T14:43:34.170Z,9.70
2019-06-07T14:46:01.864Z,8.73
2019-06-07T14:48:30.386Z,9.20
2019-06-07T14:50:58.535Z,9.20
2019-06-07T14:53:26.652Z,8.93
2019-06-07T14:55:54.586Z,8.37
2019-06-07T14:58:22.549Z,8.33
2019-06-07T15:00:50.516Z,8.80
2019-06-07T15:03:18.391Z,9.67
2019-06-07T15:05:46.163Z,12.03
2019-06-07T15:08:13.916Z,9.67
2019-06-07T15:10:41.782Z,9.33
2019-06-07T15:13:09.611Z,8.83
2019-06-07T15:15:38.801Z,9.30
2019-06-07T15:18:06.810Z,9.27
2019-06-07T15:20:36.288Z,8.87
2019-06-07T15:23:03.998Z,9.13
2019-06-07T15:25:33.123Z,8.60
2019-06-07T15:28:01.166Z,8.90
2019-06-07T15:30:29.607Z,8.63
2019-06-07T15:32:59.620Z,9.87
2019-06-07T15:35:28.005Z,9.53
2019-06-07T15:37:55.904Z,8.63
2019-06-07T15:40:23.615Z,8.60
2019-06-07T15:42:53.104Z,7.70
2019-06-07T15:45:20.863Z,7.60
2019-06-07T15:47:48.716Z,8.50
2019-06-07T15:50:16.691Z,8.40
2019-06-07T15:52:44.374Z,8.07
2019-06-07T15:55:12.628Z,7.47
2019-06-07T15:57:41.910Z,7.07
2019-06-07T16:00:11.330Z,8.43
2019-06-07T16:02:39.723Z,6.93
2019-06-07T16:05:07.582Z,7.53
2019-06-07T16:07:36.230Z,8.20
2019-06-07T16:10:05.669Z,7.33
2019-06-07T16:12:34.556Z,8.23
2019-06-07T16:15:02.546Z,6.93
2019-06-07T16:17:30.306Z,6.77
2019-06-07T16:19:59.189Z,7.23
2019-06-07T16:22:26.956Z,7.27
2019-06-07T16:24:55.028Z,7.23
2019-06-07T16:27:22.779Z,6.63
2019-06-07T16:29:50.668Z,6.43
2019-06-07T16:32:18.395Z,7.30
2019-06-07T16:34:46.135Z,8.53
2019-06-07T16:37:13.872Z,8.40
2019-06-07T16:39:42.280Z,7.50
2019-06-07T16:42:09.995Z,7.13
2019-06-07T16:44:38.739Z,7.13
2019-06-07T16:47:06.672Z,6.70
2019-06-07T16:49:34.427Z,7.33
2019-06-07T16:52:02.336Z,7.23
2019-06-07T16:54:30.148Z,7.40
2019-06-07T16:56:58.032Z,7.63
2019-06-07T16:59:25.884Z,6.67
2019-06-07T17:01:53.669Z,7.40
2019-06-07T17:04:21.447Z,7.10
2019-06-07T17:06:49.299Z,7.20
2019-06-07T17:09:17.169Z,7.37
2019-06-07T17:11:46.300Z,6.90
2019-06-07T17:14:14.537Z,6.70
2019-06-07T17:16:43.222Z,7.27
2019-06-07T17:19:11.722Z,9.07
2019-06-07T17:21:39.486Z,8.37
2019-06-07T17:24:07.658Z,9.70
2019-06-07T17:26:35.631Z,10.37
2019-06-07T17:29:03.371Z,14.37
2019-06-07T17:31:31.057Z,23.47
2019-06-07T17:33:58.925Z,22.93
2019-06-07T17:36:26.616Z,8.87
2019-06-07T17:38:54.350Z,7.63
2019-06-07T17:41:22.126Z,6.70
2019-06-07T17:43:58.506Z,8.13
2019-06-07T17:46:19.298Z,9.70
2019-06-07T17:48:47.587Z,8.10
2019-06-07T17:51:15.291Z,9.07
2019-06-07T17:53:43.890Z,10.07
2019-06-07T17:56:11.888Z,7.37
2019-06-07T17:58:39.511Z,8.63
2019-06-07T18:01:07.295Z,7.37
2019-06-07T18:03:35.179Z,10.40
2019-06-07T18:06:03.466Z,12.73
2019-06-07T18:08:31.245Z,9.93
2019-06-07T18:10:59.194Z,10.70
2019-06-07T18:13:26.967Z,9.60
2019-06-07T18:15:59.291Z,7.20
2019-06-07T18:18:24.233Z,8.67
2019-06-07T18:20:53.364Z,8.10
2019-06-07T18:23:21.489Z,8.73
2019-06-07T18:25:50.457Z,8.13
2019-06-07T18:28:18.573Z,9.47
2019-06-07T18:30:46.572Z,11.07
2019-06-07T18:33:14.307Z,10.47
2019-06-07T18:35:42.063Z,11.13
2019-06-07T18:38:10.901Z,12.60
2019-06-07T18:40:39.149Z,10.83
2019-06-07T18:43:06.926Z,10.27
2019-06-07T18:45:34.621Z,11.73
2019-06-07T18:48:02.296Z,8.03
2019-06-07T18:50:30.103Z,8.63
2019-06-07T18:52:59.040Z,9.13
2019-06-07T18:55:26.861Z,9.43
2019-06-07T18:57:54.550Z,9.07
2019-06-07T19:00:23.106Z,8.80
2019-06-07T19:02:51.869Z,9.40
2019-06-07T19:05:20.190Z,8.40
2019-06-07T19:07:48.366Z,9.33
2019-06-07T19:10:16.628Z,9.83
2019-06-07T19:12:44.501Z,9.10
2019-06-07T19:15:13.493Z,8.33
2019-06-07T19:17:41.169Z,11.07
2019-06-07T19:20:09.095Z,11.00
2019-06-07T19:22:37.407Z,10.63
2019-06-07T19:25:05.835Z,9.73
2019-06-07T19:27:33.551Z,11.63
2019-06-07T19:30:01.404Z,9.47
2019-06-07T19:32:29.197Z,8.57
2019-06-07T19:34:57.501Z,9.13
2019-06-07T19:37:25.541Z,10.33
2019-06-07T19:39:53.807Z,10.80
2019-06-07T19:42:21.580Z,10.70
2019-06-07T19:44:54.358Z,10.63
2019-06-07T19:47:19.056Z,10.83
2019-06-07T19:49:46.925Z,10.67
2019-06-07T19:52:14.685Z,11.67
2019-06-07T19:54:42.788Z,11.83
2019-06-07T19:57:10.745Z,11.93
2019-06-07T19:59:38.726Z,11.83
2019-06-07T20:02:06.577Z,13.03
2019-06-07T20:04:34.338Z,12.13
2019-06-07T20:07:03.971Z,11.33
2019-06-07T20:09:31.509Z,11.23
2019-06-07T20:12:00.659Z,13.40
2019-06-07T20:14:28.940Z,15.33
2019-06-07T20:16:57.141Z,14.63
2019-06-07T20:19:25.233Z,15.53
2019-06-07T20:21:53.270Z,16.17
2019-06-07T20:24:26.995Z,14.83
2019-06-07T20:26:50.477Z,14.70
2019-06-07T20:29:25.781Z,13.77
2019-06-07T20:31:47.858Z,15.17
2019-06-07T20:34:15.556Z,15.00
2019-06-07T20:36:45.832Z,15.43
2019-06-07T20:39:12.516Z,14.87
2019-06-07T20:41:40.465Z,15.73
2019-06-07T20:44:08.179Z,14.73
2019-06-07T20:46:35.990Z,15.70
2019-06-07T20:49:04.940Z,14.97
2019-06-07T20:51:33.459Z,13.70
2019-06-07T20:54:02.450Z,14.00
2019-06-07T20:56:30.192Z,14.53
2019-06-07T20:58:58.512Z,14.27
2019-06-07T21:01:26.223Z,15.63
2019-06-07T21:03:54.033Z,15.07
2019-06-07T21:06:21.754Z,14.07
2019-06-07T21:08:49.459Z,14.10
2019-06-07T21:11:17.331Z,15.43
2019-06-07T21:13:45.301Z,15.77
2019-06-07T21:16:12.959Z,17.90
2019-06-07T21:18:40.721Z,17.03
2019-06-07T21:21:08.604Z,15.53
2019-06-07T21:23:36.359Z,14.87
2019-06-07T21:26:04.762Z,15.67
2019-06-07T21:28:34.562Z,15.60
2019-06-07T21:31:03.476Z,16.03
2019-06-07T21:33:31.416Z,16.00
2019-06-07T21:35:59.180Z,16.03
2019-06-07T21:38:26.940Z,16.63
2019-06-07T21:40:55.122Z,16.17
2019-06-07T21:43:22.716Z,14.77
2019-06-07T21:46:04.407Z,16.10
2019-06-07T21:48:20.169Z,16.57
2019-06-07T21:50:47.915Z,16.33
2019-06-07T21:53:15.796Z,16.47
2019-06-07T21:55:43.670Z,16.73
2019-06-07T21:58:11.536Z,15.30
2019-06-07T22:00:56.612Z,15.57
2019-06-07T22:03:24.574Z,14.50
2019-06-07T22:05:52.323Z,14.67
2019-06-07T22:08:20.309Z,14.43
2019-06-07T22:10:48.184Z,15.33
2019-06-07T22:13:16.052Z,13.90
2019-06-07T22:15:44.020Z,15.77
2019-06-07T22:18:12.879Z,15.20
2019-06-07T22:20:40.879Z,14.00
2019-06-07T22:23:08.649Z,15.20
2019-06-07T22:25:36.295Z,15.67
2019-06-07T22:28:04.115Z,15.23
2019-06-07T22:30:31.850Z,14.37
2019-06-07T22:32:59.766Z,16.27
2019-06-07T22:35:27.780Z,14.67
2019-06-07T22:37:55.547Z,13.90
2019-06-07T22:40:23.408Z,14.30
2019-06-07T22:42:51.393Z,14.13
2019-06-07T22:45:19.254Z,15.43
2019-06-07T22:47:46.917Z,15.10
2019-06-07T22:50:16.352Z,13.10
2019-06-07T22:52:44.400Z,14.43
2019-06-07T22:55:13.834Z,14.30
2019-06-07T22:57:59.900Z,15.00
2019-06-07T23:00:32.374Z,13.67
2019-06-07T23:03:00.026Z,12.83
2019-06-07T23:05:28.312Z,15.07
2019-06-07T23:07:56.083Z,15.03
2019-06-07T23:10:23.953Z,14.27
2019-06-07T23:12:51.825Z,13.77
2019-06-07T23:15:20.809Z,14.03
2019-06-07T23:17:48.790Z,13.20
2019-06-07T23:20:18.034Z,14.50
2019-06-07T23:22:45.848Z,13.90
2019-06-07T23:25:17.649Z,15.33
2019-06-07T23:27:43.120Z,16.93
2019-06-07T23:30:12.318Z,13.83
2019-06-07T23:32:40.081Z,14.87
2019-06-07T23:35:07.962Z,14.37
2019-06-07T23:37:35.826Z,15.63
2019-06-07T23:40:03.792Z,13.63
2019-06-07T23:42:31.660Z,16.00
2019-06-07T23:44:59.432Z,15.23
2019-06-07T23:47:27.294Z,15.43
2019-06-07T23:49:55.000Z,15.10
2019-06-07T23:52:22.834Z,15.93
2019-06-07T23:54:50.498Z,15.97
2019-06-07T23:57:19.553Z,15.60
2019-06-07T23:59:47.762Z,15.77
